sensor_id;sensor_type;location;lat;lon;timestamp;P1;durP1;ratioP1;P2;durP2;ratioP2
65636;SDS011;52327;42.622;23.316;2023-11-19T00:00:07;0.90;;;0.67;;
65636;SDS011;52327;42.622;23.316;2023-11-19T00:02:41;1.38;;;0.93;;
65636;SDS011;52327;42.622;23.316;2023-11-19T00:05:07;1.40;;;1.30;;
65636;SDS011;52327;42.622;23.316;2023-11-19T00:07:37;0.57;;;0.45;;
65636;SDS011;52327;42.622;23.316;2023-11-19T00:10:07;1.02;;;0.88;;
65636;SDS011;52327;42.622;23.316;2023-11-19T00:12:47;0.70;;;0.70;;
65636;SDS011;52327;42.622;23.316;2023-11-19T00:15:13;0.45;;;0.45;;
65636;SDS011;52327;42.622;23.316;2023-11-19T00:17:40;0.40;;;0.40;;
65636;SDS011;52327;42.622;23.316;2023-11-19T00:20:16;0.68;;;0.68;;
65636;SDS011;52327;42.622;23.316;2023-11-19T00:22:50;1.52;;;0.75;;
65636;SDS011;52327;42.622;23.316;2023-11-19T00:25:20;2.15;;;0.82;;
65636;SDS011;52327;42.622;23.316;2023-11-19T00:27:50;1.10;;;1.00;;
65636;SDS011;52327;42.622;23.316;2023-11-19T00:30:16;0.65;;;0.65;;
65636;SDS011;52327;42.622;23.316;2023-11-19T00:32:42;0.63;;;0.63;;
65636;SDS011;52327;42.622;23.316;2023-11-19T00:35:10;0.60;;;0.60;;
65636;SDS011;52327;42.622;23.316;2023-11-19T00:37:36;0.65;;;0.50;;
65636;SDS011;52327;42.622;23.316;2023-11-19T00:40:02;0.98;;;0.93;;
65636;SDS011;52327;42.622;23.316;2023-11-19T00:42:30;0.63;;;0.63;;
65636;SDS011;52327;42.622;23.316;2023-11-19T00:44:56;0.85;;;0.73;;
65636;SDS011;52327;42.622;23.316;2023-11-19T00:47:21;0.85;;;0.85;;
65636;SDS011;52327;42.622;23.316;2023-11-19T00:49:47;0.40;;;0.40;;
65636;SDS011;52327;42.622;23.316;2023-11-19T00:52:18;0.43;;;0.43;;
65636;SDS011;52327;42.622;23.316;2023-11-19T00:54:44;2.10;;;1.60;;
65636;SDS011;52327;42.622;23.316;2023-11-19T00:57:09;0.35;;;0.35;;
65636;SDS011;52327;42.622;23.316;2023-11-19T00:59:35;1.17;;;1.08;;
65636;SDS011;52327;42.622;23.316;2023-11-19T01:02:00;1.02;;;0.93;;
65636;SDS011;52327;42.622;23.316;2023-11-19T01:04:34;0.63;;;0.45;;
65636;SDS011;52327;42.622;23.316;2023-11-19T01:07:03;1.25;;;0.88;;
65636;SDS011;52327;42.622;23.316;2023-11-19T01:09:30;0.30;;;0.30;;
65636;SDS011;52327;42.622;23.316;2023-11-19T01:14:25;1.02;;;1.00;;
65636;SDS011;52327;42.622;23.316;2023-11-19T01:16:51;0.57;;;0.57;;
65636;SDS011;52327;42.622;23.316;2023-11-19T01:19:18;0.40;;;0.40;;
65636;SDS011;52327;42.622;23.316;2023-11-19T01:21:50;0.50;;;0.50;;
65636;SDS011;52327;42.622;23.316;2023-11-19T01:24:16;0.50;;;0.50;;
65636;SDS011;52327;42.622;23.316;2023-11-19T01:26:43;1.70;;;0.90;;
65636;SDS011;52327;42.622;23.316;2023-11-19T01:29:13;1.00;;;0.90;;
65636;SDS011;52327;42.622;23.316;2023-11-19T01:31:42;1.40;;;1.05;;
65636;SDS011;52327;42.622;23.316;2023-11-19T01:34:08;0.90;;;0.87;;
65636;SDS011;52327;42.622;23.316;2023-11-19T01:36:35;1.05;;;0.70;;
65636;SDS011;52327;42.622;23.316;2023-11-19T01:39:00;0.40;;;0.40;;
65636;SDS011;52327;42.622;23.316;2023-11-19T01:41:26;0.22;;;0.22;;
65636;SDS011;52327;42.622;23.316;2023-11-19T01:43:52;0.40;;;0.40;;
65636;SDS011;52327;42.622;23.316;2023-11-19T01:46:17;0.98;;;0.95;;
65636;SDS011;52327;42.622;23.316;2023-11-19T01:48:44;0.22;;;0.22;;
65636;SDS011;52327;42.622;23.316;2023-11-19T01:51:12;0.52;;;0.52;;
65636;SDS011;52327;42.622;23.316;2023-11-19T01:53:41;0.38;;;0.38;;
65636;SDS011;52327;42.622;23.316;2023-11-19T01:56:08;2.35;;;2.25;;
65636;SDS011;52327;42.622;23.316;2023-11-19T01:58:36;0.35;;;0.30;;
65636;SDS011;52327;42.622;23.316;2023-11-19T02:01:02;0.40;;;0.40;;
65636;SDS011;52327;42.622;23.316;2023-11-19T02:03:30;0.43;;;0.43;;
65636;SDS011;52327;42.622;23.316;2023-11-19T02:05:58;0.75;;;0.47;;
65636;SDS011;52327;42.622;23.316;2023-11-19T02:08:24;0.73;;;0.73;;
65636;SDS011;52327;42.622;23.316;2023-11-19T02:10:51;0.55;;;0.55;;
65636;SDS011;52327;42.622;23.316;2023-11-19T02:13:17;0.50;;;0.50;;
65636;SDS011;52327;42.622;23.316;2023-11-19T02:15:45;0.32;;;0.32;;
65636;SDS011;52327;42.622;23.316;2023-11-19T02:18:18;0.47;;;0.47;;
65636;SDS011;52327;42.622;23.316;2023-11-19T02:20:44;0.52;;;0.52;;
65636;SDS011;52327;42.622;23.316;2023-11-19T02:23:11;0.20;;;0.20;;
65636;SDS011;52327;42.622;23.316;2023-11-19T02:25:38;0.50;;;0.50;;
65636;SDS011;52327;42.622;23.316;2023-11-19T02:28:07;0.60;;;0.60;;
65636;SDS011;52327;42.622;23.316;2023-11-19T02:30:37;0.20;;;0.20;;
65636;SDS011;52327;42.622;23.316;2023-11-19T02:33:02;1.55;;;1.10;;
65636;SDS011;52327;42.622;23.316;2023-11-19T02:35:32;1.88;;;1.10;;
65636;SDS011;52327;42.622;23.316;2023-11-19T02:37:59;0.30;;;0.30;;
65636;SDS011;52327;42.622;23.316;2023-11-19T02:40:25;0.82;;;0.30;;
65636;SDS011;52327;42.622;23.316;2023-11-19T02:42:51;1.30;;;0.77;;
65636;SDS011;52327;42.622;23.316;2023-11-19T02:45:19;0.60;;;0.60;;
65636;SDS011;52327;42.622;23.316;2023-11-19T02:47:44;0.75;;;0.75;;
65636;SDS011;52327;42.622;23.316;2023-11-19T02:50:13;0.60;;;0.60;;
65636;SDS011;52327;42.622;23.316;2023-11-19T02:52:41;0.85;;;0.85;;
65636;SDS011;52327;42.622;23.316;2023-11-19T02:55:07;1.20;;;1.08;;
65636;SDS011;52327;42.622;23.316;2023-11-19T02:57:40;0.32;;;0.32;;
65636;SDS011;52327;42.622;23.316;2023-11-19T03:00:20;0.55;;;0.45;;
65636;SDS011;52327;42.622;23.316;2023-11-19T03:03:00;0.40;;;0.40;;
65636;SDS011;52327;42.622;23.316;2023-11-19T03:05:35;0.47;;;0.47;;
65636;SDS011;52327;42.622;23.316;2023-11-19T03:08:00;0.43;;;0.43;;
65636;SDS011;52327;42.622;23.316;2023-11-19T03:10:26;0.45;;;0.35;;
65636;SDS011;52327;42.622;23.316;2023-11-19T03:12:51;0.20;;;0.20;;
65636;SDS011;52327;42.622;23.316;2023-11-19T03:15:17;0.85;;;0.60;;
65636;SDS011;52327;42.622;23.316;2023-11-19T03:17:46;0.88;;;0.80;;
65636;SDS011;52327;42.622;23.316;2023-11-19T03:20:14;0.40;;;0.40;;
65636;SDS011;52327;42.622;23.316;2023-11-19T03:22:46;0.38;;;0.30;;
65636;SDS011;52327;42.622;23.316;2023-11-19T03:25:11;0.70;;;0.70;;
65636;SDS011;52327;42.622;23.316;2023-11-19T03:27:39;0.55;;;0.52;;
65636;SDS011;52327;42.622;23.316;2023-11-19T03:30:07;0.10;;;0.10;;
65636;SDS011;52327;42.622;23.316;2023-11-19T03:32:36;0.47;;;0.47;;
65636;SDS011;52327;42.622;23.316;2023-11-19T03:35:17;1.70;;;1.17;;
65636;SDS011;52327;42.622;23.316;2023-11-19T03:37:43;0.50;;;0.45;;
65636;SDS011;52327;42.622;23.316;2023-11-19T03:40:09;0.82;;;0.68;;
65636;SDS011;52327;42.622;23.316;2023-11-19T03:42:38;0.82;;;0.65;;
65636;SDS011;52327;42.622;23.316;2023-11-19T03:45:05;0.68;;;0.68;;
65636;SDS011;52327;42.622;23.316;2023-11-19T03:47:33;5.15;;;0.60;;
65636;SDS011;52327;42.622;23.316;2023-11-19T03:49:59;2.65;;;1.00;;
65636;SDS011;52327;42.622;23.316;2023-11-19T03:52:25;1.33;;;0.70;;
65636;SDS011;52327;42.622;23.316;2023-11-19T03:54:52;0.10;;;0.10;;
65636;SDS011;52327;42.622;23.316;2023-11-19T03:57:18;0.93;;;0.77;;
65636;SDS011;52327;42.622;23.316;2023-11-19T03:59:43;0.30;;;0.28;;
65636;SDS011;52327;42.622;23.316;2023-11-19T04:02:09;1.95;;;0.80;;
65636;SDS011;52327;42.622;23.316;2023-11-19T04:04:37;1.33;;;0.98;;
65636;SDS011;52327;42.622;23.316;2023-11-19T04:07:06;0.28;;;0.28;;
65636;SDS011;52327;42.622;23.316;2023-11-19T04:09:31;0.30;;;0.30;;
65636;SDS011;52327;42.622;23.316;2023-11-19T04:12:02;0.50;;;0.50;;
65636;SDS011;52327;42.622;23.316;2023-11-19T04:14:28;1.20;;;0.40;;
65636;SDS011;52327;42.622;23.316;2023-11-19T04:16:54;0.40;;;0.40;;
65636;SDS011;52327;42.622;23.316;2023-11-19T04:19:20;0.88;;;0.75;;
65636;SDS011;52327;42.622;23.316;2023-11-19T04:21:45;1.25;;;0.68;;
65636;SDS011;52327;42.622;23.316;2023-11-19T04:24:12;0.30;;;0.30;;
65636;SDS011;52327;42.622;23.316;2023-11-19T04:26:44;0.77;;;0.77;;
65636;SDS011;52327;42.622;23.316;2023-11-19T04:29:11;0.30;;;0.30;;
65636;SDS011;52327;42.622;23.316;2023-11-19T04:31:38;0.30;;;0.30;;
65636;SDS011;52327;42.622;23.316;2023-11-19T04:34:04;1.15;;;0.82;;
65636;SDS011;52327;42.622;23.316;2023-11-19T04:36:31;0.43;;;0.43;;
65636;SDS011;52327;42.622;23.316;2023-11-19T04:39:02;0.65;;;0.63;;
65636;SDS011;52327;42.622;23.316;2023-11-19T04:41:30;0.22;;;0.22;;
65636;SDS011;52327;42.622;23.316;2023-11-19T04:43:56;0.57;;;0.52;;
65636;SDS011;52327;42.622;23.316;2023-11-19T04:46:21;0.55;;;0.55;;
65636;SDS011;52327;42.622;23.316;2023-11-19T04:48:48;0.50;;;0.50;;
65636;SDS011;52327;42.622;23.316;2023-11-19T04:51:15;0.80;;;0.75;;
65636;SDS011;52327;42.622;23.316;2023-11-19T04:53:40;0.22;;;0.20;;
65636;SDS011;52327;42.622;23.316;2023-11-19T04:56:12;0.40;;;0.40;;
65636;SDS011;52327;42.622;23.316;2023-11-19T04:58:38;0.70;;;0.70;;
65636;SDS011;52327;42.622;23.316;2023-11-19T05:01:13;0.20;;;0.20;;
65636;SDS011;52327;42.622;23.316;2023-11-19T05:03:51;0.35;;;0.35;;
65636;SDS011;52327;42.622;23.316;2023-11-19T05:06:16;1.33;;;1.15;;
65636;SDS011;52327;42.622;23.316;2023-11-19T05:08:42;0.20;;;0.20;;
65636;SDS011;52327;42.622;23.316;2023-11-19T05:11:07;0.28;;;0.28;;
65636;SDS011;52327;42.622;23.316;2023-11-19T05:16:03;1.98;;;1.58;;
65636;SDS011;52327;42.622;23.316;2023-11-19T05:18:31;0.52;;;0.52;;
65636;SDS011;52327;42.622;23.316;2023-11-19T05:20:56;0.30;;;0.30;;
65636;SDS011;52327;42.622;23.316;2023-11-19T05:23:22;0.50;;;0.50;;
65636;SDS011;52327;42.622;23.316;2023-11-19T05:25:47;0.95;;;0.95;;
65636;SDS011;52327;42.622;23.316;2023-11-19T05:28:16;0.90;;;0.60;;
65636;SDS011;52327;42.622;23.316;2023-11-19T05:30:41;0.35;;;0.35;;
65636;SDS011;52327;42.622;23.316;2023-11-19T05:33:06;0.32;;;0.32;;
65636;SDS011;52327;42.622;23.316;2023-11-19T05:35:34;1.15;;;1.10;;
65636;SDS011;52327;42.622;23.316;2023-11-19T05:37:59;0.65;;;0.65;;
65636;SDS011;52327;42.622;23.316;2023-11-19T05:40:25;0.28;;;0.28;;
65636;SDS011;52327;42.622;23.316;2023-11-19T05:42:53;0.35;;;0.35;;
65636;SDS011;52327;42.622;23.316;2023-11-19T05:45:22;0.43;;;0.38;;
65636;SDS011;52327;42.622;23.316;2023-11-19T05:47:47;0.20;;;0.20;;
65636;SDS011;52327;42.622;23.316;2023-11-19T05:50:12;0.20;;;0.20;;
65636;SDS011;52327;42.622;23.316;2023-11-19T05:52:39;1.92;;;1.77;;
65636;SDS011;52327;42.622;23.316;2023-11-19T05:55:05;0.80;;;0.60;;
65636;SDS011;52327;42.622;23.316;2023-11-19T05:57:34;0.22;;;0.22;;
65636;SDS011;52327;42.622;23.316;2023-11-19T06:00:01;1.65;;;0.63;;
65636;SDS011;52327;42.622;23.316;2023-11-19T06:02:26;0.43;;;0.40;;
65636;SDS011;52327;42.622;23.316;2023-11-19T06:04:52;0.25;;;0.25;;
65636;SDS011;52327;42.622;23.316;2023-11-19T06:07:20;0.22;;;0.22;;
65636;SDS011;52327;42.622;23.316;2023-11-19T06:09:46;0.50;;;0.50;;
65636;SDS011;52327;42.622;23.316;2023-11-19T06:12:11;0.28;;;0.28;;
65636;SDS011;52327;42.622;23.316;2023-11-19T06:14:39;0.20;;;0.20;;
65636;SDS011;52327;42.622;23.316;2023-11-19T06:17:05;0.57;;;0.57;;
65636;SDS011;52327;42.622;23.316;2023-11-19T06:19:35;0.40;;;0.40;;
65636;SDS011;52327;42.622;23.316;2023-11-19T06:22:01;0.68;;;0.68;;
65636;SDS011;52327;42.622;23.316;2023-11-19T06:24:26;0.30;;;0.30;;
65636;SDS011;52327;42.622;23.316;2023-11-19T06:26:52;2.83;;;0.52;;
65636;SDS011;52327;42.622;23.316;2023-11-19T06:29:17;1.08;;;0.80;;
65636;SDS011;52327;42.622;23.316;2023-11-19T06:31:44;0.47;;;0.47;;
65636;SDS011;52327;42.622;23.316;2023-11-19T06:34:10;0.30;;;0.30;;
65636;SDS011;52327;42.622;23.316;2023-11-19T06:36:35;1.20;;;0.80;;
65636;SDS011;52327;42.622;23.316;2023-11-19T06:39:01;0.20;;;0.20;;
65636;SDS011;52327;42.622;23.316;2023-11-19T06:41:27;0.60;;;0.57;;
65636;SDS011;52327;42.622;23.316;2023-11-19T06:43:54;0.50;;;0.50;;
65636;SDS011;52327;42.622;23.316;2023-11-19T06:46:19;0.77;;;0.77;;
65636;SDS011;52327;42.622;23.316;2023-11-19T06:48:45;1.05;;;0.77;;
65636;SDS011;52327;42.622;23.316;2023-11-19T06:51:11;0.28;;;0.28;;
65636;SDS011;52327;42.622;23.316;2023-11-19T06:53:37;1.38;;;1.08;;
65636;SDS011;52327;42.622;23.316;2023-11-19T06:56:05;0.68;;;0.68;;
65636;SDS011;52327;42.622;23.316;2023-11-19T06:58:35;0.40;;;0.40;;
65636;SDS011;52327;42.622;23.316;2023-11-19T07:01:01;0.60;;;0.57;;
65636;SDS011;52327;42.622;23.316;2023-11-19T07:03:26;0.70;;;0.65;;
65636;SDS011;52327;42.622;23.316;2023-11-19T07:05:52;0.30;;;0.30;;
65636;SDS011;52327;42.622;23.316;2023-11-19T07:08:17;0.75;;;0.60;;
65636;SDS011;52327;42.622;23.316;2023-11-19T07:10:43;0.30;;;0.30;;
65636;SDS011;52327;42.622;23.316;2023-11-19T07:13:08;0.20;;;0.20;;
65636;SDS011;52327;42.622;23.316;2023-11-19T07:15:34;1.20;;;0.77;;
65636;SDS011;52327;42.622;23.316;2023-11-19T07:18:00;0.30;;;0.30;;
65636;SDS011;52327;42.622;23.316;2023-11-19T07:20:25;0.82;;;0.57;;
65636;SDS011;52327;42.622;23.316;2023-11-19T07:22:52;0.63;;;0.57;;
65636;SDS011;52327;42.622;23.316;2023-11-19T07:25:19;0.20;;;0.20;;
65636;SDS011;52327;42.622;23.316;2023-11-19T07:27:45;0.40;;;0.40;;
65636;SDS011;52327;42.622;23.316;2023-11-19T07:30:12;1.40;;;0.88;;
65636;SDS011;52327;42.622;23.316;2023-11-19T07:32:37;0.70;;;0.70;;
65636;SDS011;52327;42.622;23.316;2023-11-19T07:35:04;0.45;;;0.45;;
65636;SDS011;52327;42.622;23.316;2023-11-19T07:37:30;0.45;;;0.45;;
65636;SDS011;52327;42.622;23.316;2023-11-19T07:39:56;0.40;;;0.40;;
65636;SDS011;52327;42.622;23.316;2023-11-19T07:42:21;0.35;;;0.35;;
65636;SDS011;52327;42.622;23.316;2023-11-19T07:44:48;1.35;;;0.98;;
65636;SDS011;52327;42.622;23.316;2023-11-19T07:47:13;0.20;;;0.20;;
65636;SDS011;52327;42.622;23.316;2023-11-19T07:49:38;1.25;;;0.50;;
65636;SDS011;52327;42.622;23.316;2023-11-19T07:52:04;0.35;;;0.35;;
65636;SDS011;52327;42.622;23.316;2023-11-19T07:54:30;0.63;;;0.60;;
65636;SDS011;52327;42.622;23.316;2023-11-19T07:56:55;0.50;;;0.50;;
65636;SDS011;52327;42.622;23.316;2023-11-19T07:59:21;0.47;;;0.47;;
65636;SDS011;52327;42.622;23.316;2023-11-19T08:01:46;0.25;;;0.25;;
65636;SDS011;52327;42.622;23.316;2023-11-19T08:04:12;0.75;;;0.73;;
65636;SDS011;52327;42.622;23.316;2023-11-19T08:06:38;0.30;;;0.30;;
65636;SDS011;52327;42.622;23.316;2023-11-19T08:09:03;0.20;;;0.20;;
65636;SDS011;52327;42.622;23.316;2023-11-19T08:11:30;1.00;;;0.45;;
65636;SDS011;52327;42.622;23.316;2023-11-19T08:13:55;0.52;;;0.52;;
65636;SDS011;52327;42.622;23.316;2023-11-19T08:16:21;0.25;;;0.25;;
65636;SDS011;52327;42.622;23.316;2023-11-19T08:18:46;0.60;;;0.60;;
65636;SDS011;52327;42.622;23.316;2023-11-19T08:21:14;1.35;;;0.88;;
65636;SDS011;52327;42.622;23.316;2023-11-19T08:23:40;0.43;;;0.43;;
65636;SDS011;52327;42.622;23.316;2023-11-19T08:26:05;0.38;;;0.38;;
65636;SDS011;52327;42.622;23.316;2023-11-19T08:28:31;2.05;;;1.95;;
65636;SDS011;52327;42.622;23.316;2023-11-19T08:30:56;0.50;;;0.45;;
65636;SDS011;52327;42.622;23.316;2023-11-19T08:33:24;0.70;;;0.50;;
65636;SDS011;52327;42.622;23.316;2023-11-19T08:35:49;0.35;;;0.35;;
65636;SDS011;52327;42.622;23.316;2023-11-19T08:38:15;1.33;;;1.13;;
65636;SDS011;52327;42.622;23.316;2023-11-19T08:40:40;1.38;;;1.08;;
65636;SDS011;52327;42.622;23.316;2023-11-19T08:43:06;1.10;;;0.85;;
65636;SDS011;52327;42.622;23.316;2023-11-19T08:45:31;0.43;;;0.43;;
65636;SDS011;52327;42.622;23.316;2023-11-19T08:47:57;0.38;;;0.38;;
65636;SDS011;52327;42.622;23.316;2023-11-19T08:50:22;1.45;;;1.35;;
65636;SDS011;52327;42.622;23.316;2023-11-19T08:52:48;0.40;;;0.40;;
65636;SDS011;52327;42.622;23.316;2023-11-19T08:55:14;0.52;;;0.50;;
65636;SDS011;52327;42.622;23.316;2023-11-19T08:57:39;1.10;;;0.98;;
65636;SDS011;52327;42.622;23.316;2023-11-19T09:00:05;0.70;;;0.70;;
65636;SDS011;52327;42.622;23.316;2023-11-19T09:02:34;1.33;;;0.90;;
65636;SDS011;52327;42.622;23.316;2023-11-19T09:05:02;0.30;;;0.30;;
65636;SDS011;52327;42.622;23.316;2023-11-19T09:07:27;0.80;;;0.80;;
65636;SDS011;52327;42.622;23.316;2023-11-19T09:09:53;0.50;;;0.50;;
65636;SDS011;52327;42.622;23.316;2023-11-19T09:12:18;0.30;;;0.30;;
65636;SDS011;52327;42.622;23.316;2023-11-19T09:14:44;0.70;;;0.70;;
65636;SDS011;52327;42.622;23.316;2023-11-19T09:17:11;1.08;;;0.75;;
65636;SDS011;52327;42.622;23.316;2023-11-19T09:19:42;0.60;;;0.60;;
65636;SDS011;52327;42.622;23.316;2023-11-19T09:22:13;0.63;;;0.47;;
65636;SDS011;52327;42.622;23.316;2023-11-19T09:24:50;0.50;;;0.50;;
65636;SDS011;52327;42.622;23.316;2023-11-19T09:27:18;1.50;;;0.85;;
65636;SDS011;52327;42.622;23.316;2023-11-19T09:29:44;0.60;;;0.60;;
65636;SDS011;52327;42.622;23.316;2023-11-19T09:32:16;0.82;;;0.80;;
65636;SDS011;52327;42.622;23.316;2023-11-19T09:34:44;1.08;;;0.95;;
65636;SDS011;52327;42.622;23.316;2023-11-19T09:37:12;1.15;;;1.15;;
65636;SDS011;52327;42.622;23.316;2023-11-19T09:39:39;0.32;;;0.32;;
65636;SDS011;52327;42.622;23.316;2023-11-19T09:42:08;0.75;;;0.70;;
65636;SDS011;52327;42.622;23.316;2023-11-19T09:44:39;0.30;;;0.30;;
65636;SDS011;52327;42.622;23.316;2023-11-19T09:47:07;0.30;;;0.30;;
65636;SDS011;52327;42.622;23.316;2023-11-19T09:49:42;0.30;;;0.30;;
65636;SDS011;52327;42.622;23.316;2023-11-19T09:52:09;0.55;;;0.55;;
65636;SDS011;52327;42.622;23.316;2023-11-19T09:54:34;0.73;;;0.73;;
65636;SDS011;52327;42.622;23.316;2023-11-19T09:57:00;0.40;;;0.40;;
65636;SDS011;52327;42.622;23.316;2023-11-19T09:59:35;1.02;;;0.95;;
65636;SDS011;52327;42.622;23.316;2023-11-19T10:02:05;0.65;;;0.65;;
65636;SDS011;52327;42.622;23.316;2023-11-19T10:04:35;0.93;;;0.68;;
65636;SDS011;52327;42.622;23.316;2023-11-19T10:07:02;0.30;;;0.30;;
65636;SDS011;52327;42.622;23.316;2023-11-19T10:09:27;0.68;;;0.68;;
65636;SDS011;52327;42.622;23.316;2023-11-19T10:11:56;0.20;;;0.20;;
65636;SDS011;52327;42.622;23.316;2023-11-19T10:14:24;0.20;;;0.20;;
65636;SDS011;52327;42.622;23.316;2023-11-19T10:16:52;0.60;;;0.57;;
65636;SDS011;52327;42.622;23.316;2023-11-19T10:19:21;1.42;;;1.33;;
65636;SDS011;52327;42.622;23.316;2023-11-19T10:21:52;0.70;;;0.70;;
65636;SDS011;52327;42.622;23.316;2023-11-19T10:24:32;0.22;;;0.22;;
65636;SDS011;52327;42.622;23.316;2023-11-19T10:26:59;0.40;;;0.40;;
65636;SDS011;52327;42.622;23.316;2023-11-19T10:29:29;0.30;;;0.30;;
65636;SDS011;52327;42.622;23.316;2023-11-19T10:31:55;1.35;;;0.93;;
65636;SDS011;52327;42.622;23.316;2023-11-19T10:34:25;0.80;;;0.55;;
65636;SDS011;52327;42.622;23.316;2023-11-19T10:36:52;0.80;;;0.80;;
65636;SDS011;52327;42.622;23.316;2023-11-19T10:39:17;0.20;;;0.20;;
65636;SDS011;52327;42.622;23.316;2023-11-19T10:41:43;1.55;;;1.45;;
65636;SDS011;52327;42.622;23.316;2023-11-19T10:44:08;0.73;;;0.68;;
65636;SDS011;52327;42.622;23.316;2023-11-19T10:46:41;0.65;;;0.50;;
65636;SDS011;52327;42.622;23.316;2023-11-19T10:49:08;0.30;;;0.30;;
65636;SDS011;52327;42.622;23.316;2023-11-19T10:51:34;0.20;;;0.20;;
65636;SDS011;52327;42.622;23.316;2023-11-19T10:54:05;3.35;;;1.60;;
65636;SDS011;52327;42.622;23.316;2023-11-19T10:56:32;0.47;;;0.45;;
65636;SDS011;52327;42.622;23.316;2023-11-19T10:59:01;0.20;;;0.20;;
65636;SDS011;52327;42.622;23.316;2023-11-19T11:01:34;0.20;;;0.20;;
65636;SDS011;52327;42.622;23.316;2023-11-19T11:04:13;0.75;;;0.52;;
65636;SDS011;52327;42.622;23.316;2023-11-19T11:06:42;0.60;;;0.60;;
65636;SDS011;52327;42.622;23.316;2023-11-19T11:09:08;0.82;;;0.77;;
65636;SDS011;52327;42.622;23.316;2023-11-19T11:11:37;0.60;;;0.60;;
65636;SDS011;52327;42.622;23.316;2023-11-19T11:14:08;0.40;;;0.40;;
65636;SDS011;52327;42.622;23.316;2023-11-19T11:16:37;0.30;;;0.30;;
65636;SDS011;52327;42.622;23.316;2023-11-19T11:19:05;1.52;;;1.05;;
65636;SDS011;52327;42.622;23.316;2023-11-19T11:21:30;1.23;;;0.57;;
65636;SDS011;52327;42.622;23.316;2023-11-19T11:27:07;0.73;;;0.73;;
65636;SDS011;52327;42.622;23.316;2023-11-19T11:38:23;0.43;;;0.30;;
65636;SDS011;52327;42.622;23.316;2023-11-19T17:22:34;5.82;;;4.30;;
65636;SDS011;52327;42.622;23.316;2023-11-19T17:25:02;4.10;;;3.03;;
65636;SDS011;52327;42.622;23.316;2023-11-19T17:27:29;4.38;;;3.78;;
65636;SDS011;52327;42.622;23.316;2023-11-19T17:29:55;3.65;;;2.63;;
65636;SDS011;52327;42.622;23.316;2023-11-19T17:32:21;4.00;;;3.58;;
65636;SDS011;52327;42.622;23.316;2023-11-19T17:34:47;2.10;;;2.00;;
65636;SDS011;52327;42.622;23.316;2023-11-19T17:37:12;5.35;;;2.55;;
65636;SDS011;52327;42.622;23.316;2023-11-19T17:39:38;5.28;;;3.70;;
65636;SDS011;52327;42.622;23.316;2023-11-19T17:42:04;2.60;;;2.40;;
65636;SDS011;52327;42.622;23.316;2023-11-19T17:44:29;4.95;;;2.97;;
65636;SDS011;52327;42.622;23.316;2023-11-19T17:46:55;2.33;;;1.83;;
65636;SDS011;52327;42.622;23.316;2023-11-19T17:49:20;2.80;;;2.55;;
65636;SDS011;52327;42.622;23.316;2023-11-19T17:51:46;4.05;;;1.48;;
65636;SDS011;52327;42.622;23.316;2023-11-19T17:54:11;3.65;;;2.92;;
65636;SDS011;52327;42.622;23.316;2023-11-19T17:56:37;3.08;;;2.78;;
65636;SDS011;52327;42.622;23.316;2023-11-19T17:59:04;3.00;;;2.67;;
65636;SDS011;52327;42.622;23.316;2023-11-19T18:01:30;3.55;;;2.42;;
65636;SDS011;52327;42.622;23.316;2023-11-19T18:03:55;3.65;;;2.13;;
65636;SDS011;52327;42.622;23.316;2023-11-19T18:06:20;1.65;;;1.52;;
65636;SDS011;52327;42.622;23.316;2023-11-19T18:08:46;4.43;;;2.78;;
65636;SDS011;52327;42.622;23.316;2023-11-19T18:11:12;8.75;;;2.53;;
65636;SDS011;52327;42.622;23.316;2023-11-19T18:13:38;3.83;;;2.78;;
65636;SDS011;52327;42.622;23.316;2023-11-19T18:16:04;3.65;;;1.88;;
65636;SDS011;52327;42.622;23.316;2023-11-19T18:18:30;2.75;;;2.22;;
65636;SDS011;52327;42.622;23.316;2023-11-19T18:20:56;4.75;;;1.88;;
65636;SDS011;52327;42.622;23.316;2023-11-19T18:23:21;4.30;;;2.08;;
65636;SDS011;52327;42.622;23.316;2023-11-19T18:25:48;3.63;;;2.63;;
65636;SDS011;52327;42.622;23.316;2023-11-19T18:28:15;2.60;;;2.05;;
65636;SDS011;52327;42.622;23.316;2023-11-19T18:30:43;2.40;;;1.80;;
65636;SDS011;52327;42.622;23.316;2023-11-19T18:33:08;3.85;;;2.45;;
65636;SDS011;52327;42.622;23.316;2023-11-19T18:35:34;3.03;;;1.83;;
65636;SDS011;52327;42.622;23.316;2023-11-19T18:37:59;4.50;;;2.47;;
65636;SDS011;52327;42.622;23.316;2023-11-19T18:40:25;2.75;;;1.90;;
65636;SDS011;52327;42.622;23.316;2023-11-19T18:42:51;5.40;;;3.15;;
65636;SDS011;52327;42.622;23.316;2023-11-19T18:45:16;3.20;;;1.75;;
65636;SDS011;52327;42.622;23.316;2023-11-19T18:47:47;1.55;;;1.45;;
65636;SDS011;52327;42.622;23.316;2023-11-19T18:50:15;1.90;;;1.73;;
65636;SDS011;52327;42.622;23.316;2023-11-19T18:52:42;7.55;;;1.98;;
65636;SDS011;52327;42.622;23.316;2023-11-19T18:55:07;3.80;;;2.30;;
65636;SDS011;52327;42.622;23.316;2023-11-19T18:57:34;2.45;;;2.28;;
65636;SDS011;52327;42.622;23.316;2023-11-19T18:59:59;2.47;;;2.28;;
65636;SDS011;52327;42.622;23.316;2023-11-19T19:02:30;2.20;;;1.77;;
65636;SDS011;52327;42.622;23.316;2023-11-19T19:04:56;1.52;;;1.35;;
65636;SDS011;52327;42.622;23.316;2023-11-19T19:07:21;2.58;;;1.90;;
65636;SDS011;52327;42.622;23.316;2023-11-19T19:09:55;4.30;;;1.55;;
65636;SDS011;52327;42.622;23.316;2023-11-19T19:12:22;2.08;;;1.95;;
65636;SDS011;52327;42.622;23.316;2023-11-19T19:14:47;2.40;;;1.52;;
65636;SDS011;52327;42.622;23.316;2023-11-19T19:17:13;2.88;;;1.52;;
65636;SDS011;52327;42.622;23.316;2023-11-19T19:19:40;4.95;;;1.38;;
65636;SDS011;52327;42.622;23.316;2023-11-19T19:22:06;1.10;;;0.75;;
65636;SDS011;52327;42.622;23.316;2023-11-19T19:24:31;3.30;;;1.90;;
65636;SDS011;52327;42.622;23.316;2023-11-19T19:27:02;0.30;;;0.30;;
65636;SDS011;52327;42.622;23.316;2023-11-19T19:29:28;0.75;;;0.75;;
65636;SDS011;52327;42.622;23.316;2023-11-19T19:31:54;0.20;;;0.20;;
65636;SDS011;52327;42.622;23.316;2023-11-19T19:34:21;0.25;;;0.25;;
65636;SDS011;52327;42.622;23.316;2023-11-19T19:36:46;0.30;;;0.30;;
65636;SDS011;52327;42.622;23.316;2023-11-19T19:39:12;0.40;;;0.30;;
65636;SDS011;52327;42.622;23.316;2023-11-19T19:41:40;0.10;;;0.10;;
65636;SDS011;52327;42.622;23.316;2023-11-19T19:44:06;0.40;;;0.30;;
65636;SDS011;52327;42.622;23.316;2023-11-19T19:46:34;0.20;;;0.20;;
65636;SDS011;52327;42.622;23.316;2023-11-19T19:49:00;0.13;;;0.13;;
65636;SDS011;52327;42.622;23.316;2023-11-19T19:51:26;0.73;;;0.40;;
65636;SDS011;52327;42.622;23.316;2023-11-19T19:53:51;0.10;;;0.10;;
65636;SDS011;52327;42.622;23.316;2023-11-19T19:56:17;0.55;;;0.20;;
65636;SDS011;52327;42.622;23.316;2023-11-19T19:58:43;0.20;;;0.20;;
65636;SDS011;52327;42.622;23.316;2023-11-19T20:01:08;0.20;;;0.20;;
65636;SDS011;52327;42.622;23.316;2023-11-19T20:03:34;0.25;;;0.25;;
65636;SDS011;52327;42.622;23.316;2023-11-19T20:06:03;0.15;;;0.15;;
65636;SDS011;52327;42.622;23.316;2023-11-19T20:08:30;0.80;;;0.55;;
65636;SDS011;52327;42.622;23.316;2023-11-19T20:10:56;0.40;;;0.30;;
65636;SDS011;52327;42.622;23.316;2023-11-19T20:13:23;0.22;;;0.22;;
65636;SDS011;52327;42.622;23.316;2023-11-19T20:15:52;1.00;;;0.47;;
65636;SDS011;52327;42.622;23.316;2023-11-19T20:18:18;0.65;;;0.32;;
65636;SDS011;52327;42.622;23.316;2023-11-19T20:20:44;0.20;;;0.20;;
65636;SDS011;52327;42.622;23.316;2023-11-19T20:23:12;0.30;;;0.30;;
65636;SDS011;52327;42.622;23.316;2023-11-19T20:25:40;1.10;;;0.43;;
65636;SDS011;52327;42.622;23.316;2023-11-19T20:28:07;0.30;;;0.30;;
65636;SDS011;52327;42.622;23.316;2023-11-19T20:30:32;0.10;;;0.10;;